createdAt,value
2023-03-08T00:02:21.493Z,97051.16
2023-03-08T00:05:10.295Z,97055.41
2023-03-08T00:08:01.989Z,97062.44
2023-03-08T00:10:46.944Z,97057.41
2023-03-08T00:13:31.463Z,97066.28
2023-03-08T00:16:08.600Z,97073.16
2023-03-08T00:18:43.023Z,97083.06
2023-03-08T00:21:29.184Z,97086.91
2023-03-08T00:24:09.803Z,97089.94
2023-03-08T00:26:52.111Z,97092.22
2023-03-08T00:29:30.477Z,97102.31
2023-03-08T00:32:20.715Z,97102.13
2023-03-08T00:35:04.165Z,97115.25
2023-03-08T00:37:47.526Z,97106.78
2023-03-08T00:40:31.886Z,97106.72
2023-03-08T00:43:21.807Z,97108.00
2023-03-08T00:46:12.920Z,97100.59
2023-03-08T00:48:50.112Z,97102.06
2023-03-08T00:51:27.481Z,97116.19
2023-03-08T00:53:54.468Z,97113.72
2023-03-08T00:56:21.059Z,97115.09
2023-03-08T00:58:47.742Z,97117.94
2023-03-08T01:01:17.165Z,97119.78
2023-03-08T01:03:43.909Z,97113.34
2023-03-08T01:06:14.045Z,97124.06
2023-03-08T01:08:42.120Z,97116.56
2023-03-08T01:11:19.506Z,97119.47
2023-03-08T01:13:46.628Z,97113.13
2023-03-08T01:16:16.577Z,97115.75
2023-03-08T01:18:43.235Z,97116.75
2023-03-08T01:21:11.040Z,97120.47
2023-03-08T01:23:37.625Z,97110.75
2023-03-08T01:26:07.000Z,97117.13
2023-03-08T01:28:42.097Z,97112.00
2023-03-08T01:31:13.458Z,97110.25
2023-03-08T01:33:40.928Z,97104.56
2023-03-08T01:36:10.495Z,97126.63
2023-03-08T01:38:37.864Z,97111.78
2023-03-08T01:41:06.158Z,97112.25
2023-03-08T01:43:35.759Z,97111.13
2023-03-08T01:46:18.134Z,97109.88
2023-03-08T01:48:47.694Z,97107.16
2023-03-08T01:51:17.956Z,97107.59
2023-03-08T01:53:44.821Z,97110.63
2023-03-08T01:56:15.456Z,97098.91
2023-03-08T01:58:45.325Z,97109.66
2023-03-08T02:01:12.147Z,97106.03
2023-03-08T02:03:38.882Z,97105.69
2023-03-08T02:06:06.424Z,97100.50
2023-03-08T02:08:33.295Z,97099.72
2023-03-08T02:11:01.339Z,97097.31
2023-03-08T02:13:28.246Z,97104.56
2023-03-08T02:15:56.962Z,97095.47
2023-03-08T02:18:23.676Z,97091.81
2023-03-08T02:20:50.329Z,97100.50
2023-03-08T02:23:20.794Z,97094.88
2023-03-08T02:25:54.845Z,97108.00
2023-03-08T02:28:23.264Z,97110.63
2023-03-08T02:30:50.922Z,97107.44
2023-03-08T02:33:18.815Z,97106.75
2023-03-08T02:35:46.149Z,97116.53
2023-03-08T02:38:14.778Z,97115.47
2023-03-08T02:40:41.542Z,97115.91
2023-03-08T02:43:08.564Z,97117.09
2023-03-08T02:45:35.562Z,97132.84
2023-03-08T02:48:04.065Z,97128.22
2023-03-08T02:50:31.759Z,97123.00
2023-03-08T02:52:59.308Z,97112.16
2023-03-08T02:55:26.013Z,97115.69
2023-03-08T02:57:52.638Z,97116.78
2023-03-08T03:00:19.394Z,97119.78
2023-03-08T03:02:46.018Z,97117.78
2023-03-08T03:05:13.317Z,97133.69
2023-03-08T03:07:41.920Z,97131.09
2023-03-08T03:10:10.906Z,97129.25
2023-03-08T03:12:37.606Z,97121.63
2023-03-08T03:15:06.222Z,97121.81
2023-03-08T03:17:33.197Z,97124.66
2023-03-08T03:19:59.833Z,97124.47
2023-03-08T03:22:26.419Z,97128.31
2023-03-08T03:24:53.010Z,97122.91
2023-03-08T03:27:19.831Z,97124.72
2023-03-08T03:29:46.406Z,97128.97
2023-03-08T03:32:13.071Z,97124.97
2023-03-08T03:34:39.933Z,97123.19
2023-03-08T03:37:06.620Z,97113.34
2023-03-08T03:39:39.094Z,97116.16
2023-03-08T03:42:07.150Z,97122.16
2023-03-08T03:44:33.852Z,97118.16
2023-03-08T03:47:00.986Z,97129.66
2023-03-08T03:49:27.718Z,97129.25
2023-03-08T03:51:54.309Z,97137.69
2023-03-08T03:54:20.901Z,97141.56
2023-03-08T03:56:47.805Z,97142.59
2023-03-08T03:59:14.490Z,97139.34
2023-03-08T04:01:41.054Z,97138.56
2023-03-08T04:04:07.663Z,97141.56
2023-03-08T04:06:34.766Z,97149.03
2023-03-08T04:09:04.321Z,97152.47
2023-03-08T04:11:35.351Z,97150.44
2023-03-08T04:14:02.195Z,97141.78
2023-03-08T04:16:31.797Z,97147.03
2023-03-08T04:19:00.950Z,97136.78
2023-03-08T04:21:28.336Z,97139.97
2023-03-08T04:23:55.918Z,97147.03
2023-03-08T04:26:23.394Z,97141.38
2023-03-08T04:28:50.469Z,97141.00
2023-03-08T04:31:20.054Z,97136.81
2023-03-08T04:33:47.855Z,97137.59
2023-03-08T04:36:15.771Z,97140.63
2023-03-08T04:38:42.841Z,97134.59
2023-03-08T04:41:13.195Z,97133.78
2023-03-08T04:43:50.141Z,97130.97
2023-03-08T04:46:22.093Z,97126.56
2023-03-08T04:48:54.117Z,97140.84
2023-03-08T04:51:22.737Z,97141.03
2023-03-08T04:53:49.386Z,97143.06
2023-03-08T04:56:17.302Z,97134.81
2023-03-08T04:58:44.764Z,97133.41
2023-03-08T05:01:12.347Z,97130.00
2023-03-08T05:03:38.996Z,97133.19
2023-03-08T05:06:06.187Z,97141.81
2023-03-08T05:08:32.808Z,97127.97
2023-03-08T05:11:01.455Z,97125.97
2023-03-08T05:13:31.762Z,97128.53
2023-03-08T05:15:58.811Z,97123.50
2023-03-08T05:18:25.616Z,97133.50
2023-03-08T05:21:01.949Z,97132.88
2023-03-08T05:23:29.736Z,97121.59
2023-03-08T05:25:58.648Z,97125.81
2023-03-08T05:28:27.786Z,97122.22
2023-03-08T05:31:14.316Z,97124.22
2023-03-08T05:33:41.767Z,97119.19
2023-03-08T05:36:09.033Z,97122.78
2023-03-08T05:38:35.707Z,97119.16
2023-03-08T05:41:04.793Z,97129.56
2023-03-08T05:43:31.680Z,97121.94
2023-03-08T05:46:03.044Z,97125.94
2023-03-08T05:48:30.802Z,97131.38
2023-03-08T05:50:58.625Z,97132.16
2023-03-08T05:53:25.797Z,97128.38
2023-03-08T05:55:52.561Z,97131.38
2023-03-08T05:58:19.285Z,97130.13
2023-03-08T06:00:45.832Z,97132.78
2023-03-08T06:03:12.509Z,97132.38
2023-03-08T06:05:39.120Z,97140.53
2023-03-08T06:08:05.959Z,97134.97
2023-03-08T06:10:32.514Z,97126.34
2023-03-08T06:12:59.101Z,97126.94
2023-03-08T06:15:25.718Z,97125.72
2023-03-08T06:17:53.874Z,97122.47
2023-03-08T06:20:20.980Z,97134.16
2023-03-08T06:22:47.952Z,97128.75
2023-03-08T06:25:14.821Z,97130.38
2023-03-08T06:27:41.375Z,97121.56
2023-03-08T06:30:08.661Z,97114.56
2023-03-08T06:32:37.542Z,97099.53
2023-03-08T06:35:04.717Z,97089.31
2023-03-08T06:37:34.231Z,97088.34
2023-03-08T06:40:01.919Z,97089.94
2023-03-08T06:42:40.560Z,97091.56
2023-03-08T06:45:09.247Z,97087.94
2023-03-08T06:47:35.815Z,97094.19
2023-03-08T06:50:02.414Z,97097.41
2023-03-08T06:52:34.936Z,97089.38
2023-03-08T06:55:01.564Z,97088.59
2023-03-08T06:57:28.126Z,97084.59
2023-03-08T06:59:54.701Z,97079.19
2023-03-08T07:02:21.329Z,97067.13
2023-03-08T07:04:49.603Z,97061.63
2023-03-08T07:07:16.587Z,97065.41
2023-03-08T07:09:43.313Z,97066.63
2023-03-08T07:12:10.000Z,97061.13
2023-03-08T07:14:36.648Z,97062.31
2023-03-08T07:17:03.259Z,97051.38
2023-03-08T07:19:31.149Z,97040.84
2023-03-08T07:21:57.735Z,97041.38
2023-03-08T07:24:24.320Z,97038.50
2023-03-08T07:26:50.905Z,97041.91
2023-03-08T07:29:17.636Z,97046.66
2023-03-08T07:31:44.294Z,97047.00
2023-03-08T07:34:10.981Z,97053.41
2023-03-08T07:36:39.831Z,97058.59
2023-03-08T07:39:06.455Z,97057.16
2023-03-08T07:41:34.715Z,97065.97
2023-03-08T07:44:02.575Z,97065.25
2023-03-08T07:46:30.010Z,97062.13
2023-03-08T07:48:56.894Z,97064.06
2023-03-08T07:51:23.664Z,97078.13
2023-03-08T07:53:51.519Z,97081.72
2023-03-08T07:56:18.267Z,97082.38
2023-03-08T07:58:44.977Z,97087.25
2023-03-08T08:01:13.187Z,97077.81
2023-03-08T08:03:40.173Z,97074.59
2023-03-08T08:06:07.540Z,97064.47
2023-03-08T08:08:34.312Z,97064.88
2023-03-08T08:11:01.201Z,97068.66
2023-03-08T08:13:27.792Z,97067.34
2023-03-08T08:16:02.690Z,97069.84
2023-03-08T08:18:29.364Z,97067.84
2023-03-08T08:21:05.208Z,97079.09
2023-03-08T08:23:32.983Z,97083.38
2023-03-08T08:25:59.885Z,97084.19
2023-03-08T08:28:27.575Z,97088.47
2023-03-08T08:30:57.257Z,97071.34
2023-03-08T08:33:23.845Z,97067.28
2023-03-08T08:35:50.579Z,97061.47
2023-03-08T08:38:17.205Z,97064.09
2023-03-08T08:40:43.819Z,97053.72
2023-03-08T08:43:10.479Z,97055.78
2023-03-08T08:45:37.219Z,97049.75
2023-03-08T08:48:07.082Z,97051.38
2023-03-08T08:50:33.722Z,97052.63
2023-03-08T08:53:00.318Z,97049.69
2023-03-08T08:55:26.959Z,97041.91
2023-03-08T08:57:53.601Z,97040.88
2023-03-08T09:00:20.365Z,97049.34
2023-03-08T09:02:47.015Z,97045.34
2023-03-08T09:05:13.642Z,97036.19
2023-03-08T09:07:40.268Z,97034.09
2023-03-08T09:10:07.961Z,97030.56
2023-03-08T09:12:34.804Z,97031.59
2023-03-08T09:15:01.641Z,97033.44
2023-03-08T09:17:28.263Z,97024.97
2023-03-08T09:19:54.880Z,97019.16
2023-03-08T09:22:21.550Z,97019.72
2023-03-08T09:24:49.414Z,97013.53
2023-03-08T09:27:16.173Z,97000.16
2023-03-08T09:29:42.805Z,96996.84
2023-03-08T09:32:09.611Z,96984.50
2023-03-08T09:34:36.298Z,96974.31
2023-03-08T09:37:03.605Z,96957.94
2023-03-08T09:39:30.175Z,96953.22
2023-03-08T09:41:59.886Z,96952.34
2023-03-08T09:44:51.943Z,96935.03
2023-03-08T09:47:42.575Z,96935.06
2023-03-08T09:50:19.824Z,96934.22
2023-03-08T09:53:00.140Z,96939.19
2023-03-08T09:55:31.880Z,96929.94
2023-03-08T09:58:04.941Z,96924.56
2023-03-08T10:00:34.932Z,96925.84
2023-03-08T10:03:11.606Z,96915.78
2023-03-08T10:05:53.473Z,96907.75
2023-03-08T10:08:26.335Z,96906.88
2023-03-08T10:11:04.245Z,96891.88
2023-03-08T10:13:41.656Z,96888.50
2023-03-08T10:16:25.419Z,96868.16
2023-03-08T10:19:22.461Z,96865.84
2023-03-08T10:21:51.360Z,96853.41
2023-03-08T10:24:31.482Z,96849.31
2023-03-08T10:27:14.677Z,96839.59
2023-03-08T10:29:48.651Z,96834.53
2023-03-08T10:32:15.379Z,96828.25
2023-03-08T10:34:41.951Z,96814.69
2023-03-08T10:37:09.902Z,96816.50
2023-03-08T10:39:37.804Z,96816.81
2023-03-08T10:42:15.633Z,96796.56
2023-03-08T10:44:59.394Z,96782.28
2023-03-08T10:47:30.270Z,96790.50
2023-03-08T10:50:15.581Z,96767.06
2023-03-08T10:52:44.219Z,96766.03
2023-03-08T10:55:16.555Z,96775.03
2023-03-08T10:57:54.002Z,96775.59
2023-03-08T11:00:20.884Z,96769.97
2023-03-08T11:02:48.371Z,96761.06
2023-03-08T11:05:22.121Z,96748.09
2023-03-08T11:07:53.210Z,96747.16
2023-03-08T11:10:24.251Z,96731.63
2023-03-08T11:13:16.995Z,96717.38
2023-03-08T11:15:51.760Z,96700.81
2023-03-08T11:18:34.716Z,96682.84
2023-03-08T11:21:13.790Z,96681.53
2023-03-08T11:23:51.721Z,96673.38
2023-03-08T11:26:49.605Z,96665.47
2023-03-08T11:29:29.703Z,96655.94
2023-03-08T11:32:01.218Z,96656.72
2023-03-08T11:34:42.811Z,96656.69
2023-03-08T11:37:21.963Z,96662.53
2023-03-08T11:40:08.858Z,96656.94
2023-03-08T11:42:50.551Z,96657.47
2023-03-08T11:45:35.471Z,96643.97
2023-03-08T11:48:23.127Z,96628.63
2023-03-08T11:50:53.210Z,96637.91
2023-03-08T11:53:43.839Z,96650.03
2023-03-08T11:56:17.973Z,96650.56
2023-03-08T11:59:10.525Z,96643.44
2023-03-08T12:01:45.308Z,96657.97
2023-03-08T12:04:18.567Z,96640.22
2023-03-08T12:06:47.258Z,96635.19
2023-03-08T12:09:29.386Z,96638.94
2023-03-08T12:12:02.973Z,96647.13
2023-03-08T12:14:33.776Z,96641.84
2023-03-08T12:17:06.441Z,96646.31
2023-03-08T12:19:49.836Z,96652.41
2023-03-08T12:22:33.646Z,96654.50
2023-03-08T12:25:06.712Z,96667.47
2023-03-08T12:27:44.501Z,96660.28
2023-03-08T12:30:11.105Z,96651.34
2023-03-08T12:32:39.457Z,96657.66
2023-03-08T12:35:24.651Z,96664.25
2023-03-08T12:38:26.348Z,96642.31
2023-03-08T12:40:55.131Z,96627.25
2023-03-08T12:43:21.734Z,96631.22
2023-03-08T12:46:02.217Z,96633.06
2023-03-08T12:48:37.668Z,96621.97
2023-03-08T12:51:21.931Z,96606.66
2023-03-08T12:53:49.133Z,96605.81
2023-03-08T12:56:29.888Z,96602.38
2023-03-08T12:59:02.397Z,96619.53
2023-03-08T13:01:30.943Z,96624.03
2023-03-08T13:03:57.582Z,96615.88
2023-03-08T13:06:24.435Z,96609.53
2023-03-08T13:08:58.128Z,96617.19
2023-03-08T13:11:37.276Z,96612.97
2023-03-08T13:14:05.955Z,96608.16
2023-03-08T13:16:36.804Z,96606.56
2023-03-08T13:19:13.780Z,96612.41
2023-03-08T13:22:04.632Z,96600.50
2023-03-08T13:24:50.665Z,96599.19
2023-03-08T13:27:30.138Z,96602.59
2023-03-08T13:30:08.967Z,96602.13
2023-03-08T13:32:35.770Z,96642.91
2023-03-08T13:35:04.898Z,96625.94
2023-03-08T13:37:32.274Z,96618.53
2023-03-08T13:40:00.110Z,96619.53
2023-03-08T13:42:29.068Z,96663.75
2023-03-08T13:45:10.146Z,96623.59
2023-03-08T13:47:39.196Z,96622.22
2023-03-08T13:50:06.555Z,96622.44
2023-03-08T13:52:36.907Z,96635.88
2023-03-08T13:55:07.352Z,96641.50
2023-03-08T13:57:37.409Z,96646.81
2023-03-08T14:00:19.395Z,96658.75
2023-03-08T14:02:47.161Z,96657.91
2023-03-08T14:05:18.256Z,96641.56
2023-03-08T14:07:56.707Z,96650.25
2023-03-08T14:10:30.144Z,96658.19
2023-03-08T14:12:57.029Z,96641.84
2023-03-08T14:15:23.706Z,96657.13
2023-03-08T14:17:51.435Z,96665.34
2023-03-08T14:20:22.029Z,96642.31
2023-03-08T14:22:53.005Z,96645.75
2023-03-08T14:25:24.120Z,96642.78
2023-03-08T14:27:51.016Z,96637.03
2023-03-08T14:30:24.113Z,96629.91
2023-03-08T14:33:18.890Z,96615.00
2023-03-08T14:35:55.493Z,96609.72
2023-03-08T14:38:27.264Z,96611.28
2023-03-08T14:40:55.076Z,96608.41
2023-03-08T14:43:25.282Z,96620.28
2023-03-08T14:45:58.362Z,96603.63
2023-03-08T14:48:29.513Z,96618.97
2023-03-08T14:51:06.813Z,96621.59
2023-03-08T14:53:33.473Z,96611.81
2023-03-08T14:56:02.366Z,96591.03
2023-03-08T14:58:34.487Z,96589.94
2023-03-08T15:01:02.381Z,96577.47
2023-03-08T15:03:31.738Z,96581.44
2023-03-08T15:06:01.503Z,96576.44
2023-03-08T15:08:28.126Z,96577.50
2023-03-08T15:10:54.760Z,96591.81
2023-03-08T15:13:23.394Z,96579.88
2023-03-08T15:15:50.769Z,96568.72
2023-03-08T15:18:17.556Z,96579.06
2023-03-08T15:20:49.362Z,96575.44
2023-03-08T15:23:29.332Z,96556.06
2023-03-08T15:25:57.217Z,96564.81
2023-03-08T15:28:24.193Z,96568.25
2023-03-08T15:30:54.593Z,96561.63
2023-03-08T15:33:22.563Z,96555.78
2023-03-08T15:35:50.148Z,96561.59
2023-03-08T15:38:18.243Z,96562.66
2023-03-08T15:40:44.846Z,96567.66
2023-03-08T15:43:11.625Z,96557.88
2023-03-08T15:45:38.191Z,96545.75
2023-03-08T15:48:07.973Z,96545.19
2023-03-08T15:50:36.087Z,96543.06
2023-03-08T15:53:03.665Z,96544.91
2023-03-08T15:55:32.025Z,96540.44
2023-03-08T15:57:58.809Z,96534.88
2023-03-08T16:00:26.280Z,96526.94
2023-03-08T16:02:53.756Z,96515.34
2023-03-08T16:05:23.435Z,96511.66
2023-03-08T16:07:59.856Z,96501.31
2023-03-08T16:10:27.181Z,96492.91
2023-03-08T16:12:53.792Z,96492.09
2023-03-08T16:15:20.513Z,96488.91
2023-03-08T16:17:47.671Z,96485.50
2023-03-08T16:20:15.964Z,96483.91
2023-03-08T16:22:42.929Z,96495.25
2023-03-08T16:25:10.223Z,96491.00
2023-03-08T16:27:38.304Z,96498.41
2023-03-08T16:30:06.196Z,96492.59
2023-03-08T16:32:33.619Z,96491.25
2023-03-08T16:35:01.222Z,96493.38
2023-03-08T16:37:28.213Z,96493.38
2023-03-08T16:39:55.148Z,96495.75
2023-03-08T16:42:22.705Z,96481.50
2023-03-08T16:44:52.075Z,96481.75
2023-03-08T16:47:20.249Z,96482.81
2023-03-08T16:49:50.092Z,96484.66
2023-03-08T16:52:17.939Z,96491.25
2023-03-08T16:54:45.174Z,96490.16
2023-03-08T16:57:18.953Z,96485.97
2023-03-08T16:59:47.759Z,96489.66
2023-03-08T17:02:18.432Z,96483.81
2023-03-08T17:04:46.454Z,96487.00
2023-03-08T17:07:13.568Z,96478.53
2023-03-08T17:09:40.404Z,96479.59
2023-03-08T17:12:08.533Z,96483.28
2023-03-08T17:14:35.900Z,96473.22
2023-03-08T17:17:03.425Z,96476.13
2023-03-08T17:19:30.057Z,96470.84
2023-03-08T17:21:56.717Z,96477.44
2023-03-08T17:24:23.450Z,96462.41
2023-03-08T17:26:52.876Z,96467.16
2023-03-08T17:29:20.273Z,96447.34
2023-03-08T17:31:47.248Z,96456.56
2023-03-08T17:34:14.104Z,96453.16
2023-03-08T17:36:40.937Z,96453.41
2023-03-08T17:39:07.844Z,96448.41
2023-03-08T17:41:34.581Z,96437.03
2023-03-08T17:44:01.429Z,96443.63
2023-03-08T17:46:28.260Z,96439.38
2023-03-08T17:48:55.918Z,96437.00
2023-03-08T17:51:25.796Z,96447.56
2023-03-08T17:53:53.408Z,96444.91
2023-03-08T17:56:25.224Z,96438.88
2023-03-08T17:58:52.828Z,96440.94
2023-03-08T18:01:22.094Z,96433.03
2023-03-08T18:03:49.041Z,96438.56
2023-03-08T18:06:25.620Z,96428.81
2023-03-08T18:08:52.597Z,96428.25
2023-03-08T18:11:19.288Z,96435.38
2023-03-08T18:13:45.929Z,96435.38
2023-03-08T18:16:12.702Z,96441.38
2023-03-08T18:18:39.396Z,96444.00
2023-03-08T18:21:13.084Z,96443.47
2023-03-08T18:23:42.807Z,96437.16
2023-03-08T18:26:11.478Z,96445.00
2023-03-08T18:28:38.449Z,96442.38
2023-03-08T18:31:23.396Z,96445.53
2023-03-08T18:33:51.453Z,96443.13
2023-03-08T18:36:20.508Z,96446.50
2023-03-08T18:38:47.150Z,96444.66
2023-03-08T18:41:16.334Z,96450.19
2023-03-08T18:43:43.270Z,96438.81
2023-03-08T18:46:12.709Z,96445.94
2023-03-08T18:48:40.355Z,96449.63
2023-03-08T18:51:07.108Z,96444.09
2023-03-08T18:53:33.804Z,96448.28
2023-03-08T18:56:02.333Z,96442.19
2023-03-08T18:58:29.110Z,96448.78
2023-03-08T19:00:58.975Z,96435.84
2023-03-08T19:03:26.969Z,96438.22
2023-03-08T19:05:53.630Z,96429.22
2023-03-08T19:08:20.628Z,96419.72
2023-03-08T19:10:47.198Z,96430.50
2023-03-08T19:13:13.903Z,96421.53
2023-03-08T19:15:40.651Z,96406.22
2023-03-08T19:18:07.357Z,96402.00
2023-03-08T19:20:38.550Z,96416.47
2023-03-08T19:23:05.157Z,96412.53
2023-03-08T19:25:33.237Z,96416.72
2023-03-08T19:28:00.108Z,96418.56
2023-03-08T19:30:28.425Z,96422.81
2023-03-08T19:32:56.172Z,96430.41
2023-03-08T19:35:23.304Z,96435.41
2023-03-08T19:37:50.047Z,96429.09
2023-03-08T19:40:17.276Z,96435.72
2023-03-08T19:42:43.908Z,96443.06
2023-03-08T19:45:11.399Z,96447.00
2023-03-08T19:47:37.985Z,96467.78
2023-03-08T19:50:04.778Z,96454.84
2023-03-08T19:52:31.421Z,96466.16
2023-03-08T19:54:58.746Z,96478.22
2023-03-08T19:57:25.340Z,96490.31
2023-03-08T19:59:52.066Z,96505.50
2023-03-08T20:02:18.665Z,96517.63
2023-03-08T20:04:45.304Z,96522.88
2023-03-08T20:07:12.061Z,96527.38
2023-03-08T20:09:41.167Z,96527.06
2023-03-08T20:12:07.800Z,96540.63
2023-03-08T20:14:35.147Z,96543.78
2023-03-08T20:17:04.601Z,96538.50
2023-03-08T20:19:32.762Z,96532.97
2023-03-08T20:21:59.666Z,96524.50
2023-03-08T20:24:26.246Z,96532.09
2023-03-08T20:26:52.877Z,96531.63
2023-03-08T20:29:19.505Z,96520.53
2023-03-08T20:31:48.165Z,96516.09
2023-03-08T20:34:16.283Z,96501.28
2023-03-08T20:36:43.509Z,96498.78
2023-03-08T20:39:10.861Z,96495.13
2023-03-08T20:41:37.480Z,96494.06
2023-03-08T20:44:04.185Z,96487.78
2023-03-08T20:46:33.746Z,96488.94
2023-03-08T20:49:01.323Z,96494.78
2023-03-08T20:51:31.923Z,96490.84
2023-03-08T20:54:01.776Z,96490.91
2023-03-08T20:56:28.774Z,96486.19
2023-03-08T20:58:57.434Z,96479.69
2023-03-08T21:01:27.668Z,96476.88
2023-03-08T21:03:54.353Z,96476.63
2023-03-08T21:06:24.112Z,96477.78
2023-03-08T21:08:51.213Z,96482.25
2023-03-08T21:11:18.076Z,96473.72
2023-03-08T21:13:47.167Z,96476.44
2023-03-08T21:16:16.240Z,96483.69
2023-03-08T21:18:45.964Z,96482.97
2023-03-08T21:21:27.318Z,96501.25
2023-03-08T21:23:57.706Z,96518.72
2023-03-08T21:26:26.150Z,96549.44
2023-03-08T21:28:53.418Z,96544.16
2023-03-08T21:31:20.157Z,96559.47
2023-03-08T21:33:47.738Z,96567.63
2023-03-08T21:36:15.167Z,96588.72
2023-03-08T21:38:41.828Z,96592.34
2023-03-08T21:41:17.775Z,96601.00
2023-03-08T21:43:44.348Z,96588.22
2023-03-08T21:46:10.988Z,96596.88
2023-03-08T21:48:37.662Z,96586.03
2023-03-08T21:51:05.445Z,96575.91
2023-03-08T21:53:32.102Z,96579.06
2023-03-08T21:55:58.974Z,96582.50
2023-03-08T21:58:25.616Z,96574.75
2023-03-08T22:00:52.571Z,96584.31
2023-03-08T22:03:19.189Z,96575.25
2023-03-08T22:05:45.893Z,96593.16
2023-03-08T22:08:12.498Z,96577.34
2023-03-08T22:10:39.072Z,96570.56
2023-03-08T22:13:05.657Z,96560.28
2023-03-08T22:15:32.277Z,96546.19
2023-03-08T22:17:58.933Z,96538.97
2023-03-08T22:20:27.395Z,96528.19
2023-03-08T22:22:54.011Z,96533.00
2023-03-08T22:25:20.614Z,96534.59
2023-03-08T22:27:47.187Z,96535.13
2023-03-08T22:30:14.388Z,96521.38
2023-03-08T22:32:41.986Z,96529.88
2023-03-08T22:35:11.079Z,96528.81
2023-03-08T22:37:38.429Z,96518.25
2023-03-08T22:40:06.978Z,96513.25
2023-03-08T22:42:34.637Z,96503.72
2023-03-08T22:45:01.231Z,96492.34
2023-03-08T22:47:27.854Z,96467.72
2023-03-08T22:49:54.444Z,96460.31
2023-03-08T22:52:21.112Z,96451.06
2023-03-08T22:54:47.784Z,96455.81
2023-03-08T22:57:15.258Z,96450.25
2023-03-08T22:59:43.491Z,96439.16
2023-03-08T23:02:10.256Z,96436.22
2023-03-08T23:04:36.972Z,96426.97
2023-03-08T23:07:03.883Z,96431.72
2023-03-08T23:09:30.660Z,96444.63
2023-03-08T23:11:59.513Z,96436.66
2023-03-08T23:14:26.109Z,96436.94
2023-03-08T23:16:52.836Z,96441.66
2023-03-08T23:19:21.442Z,96425.06
2023-03-08T23:21:48.919Z,96426.63
2023-03-08T23:24:16.462Z,96427.09
2023-03-08T23:26:45.816Z,96431.88
2023-03-08T23:29:13.743Z,96403.09
2023-03-08T23:31:44.907Z,96378.09
2023-03-08T23:34:11.832Z,96384.44
2023-03-08T23:36:38.476Z,96405.53
2023-03-08T23:39:05.143Z,96393.03
2023-03-08T23:41:32.792Z,96398.59
2023-03-08T23:44:00.971Z,96398.06
2023-03-08T23:46:28.364Z,96391.25
2023-03-08T23:48:57.002Z,96389.66
2023-03-08T23:51:26.075Z,96393.03
2023-03-08T23:53:55.030Z,96389.34
2023-03-08T23:56:26.898Z,96377.75
2023-03-08T23:58:55.545Z,96363.53
